UAL2107 KEWR-KBOS
Flight info
| Callsign | UAL2107 |
|---|---|
| Flight time | 0h 40m |
| Altitude | 21000 |
| Route | MERIT ROBUC3 |
| Aircraft | B38M/M-SDE1FGHILORVWXY/HB1 |
Departure
| Time | 2026-05-07 17:48 |
|---|---|
| Airport | Newark Liberty International Airport (KEWR) |
Arrival
| Time | 2026-05-07 18:28 |
|---|---|
| Airport | Boston Logan International Airport (KBOS) |
| Time | Latitude | Longitude | Altitude | Speed | Heading |
|---|---|---|---|---|---|
| 2026-05-07 17:28 | 40.68586 | -74.18185 | 24 ft | 0 kts | 285° |
| 2026-05-07 17:39 | 40.68584 | -74.18172 | 22 ft | 2 kts | 274° |
| 2026-05-07 17:40 | 40.68585 | -74.18150 | 21 ft | 2 kts | 250° |
| 2026-05-07 17:40 | 40.68594 | -74.18134 | 25 ft | 2 kts | 206° |
| 2026-05-07 17:40 | 40.68609 | -74.18128 | 23 ft | 1 kts | 183° |
| 2026-05-07 17:40 | 40.68613 | -74.18128 | 22 ft | 0 kts | 180° |
| 2026-05-07 17:42 | 40.68607 | -74.18128 | 24 ft | 3 kts | 180° |
| 2026-05-07 17:43 | 40.68539 | -74.18114 | 23 ft | 16 kts | 154° |
| 2026-05-07 17:43 | 40.68419 | -74.18065 | 23 ft | 20 kts | 173° |
| 2026-05-07 17:43 | 40.68277 | -74.18042 | 22 ft | 22 kts | 166° |
| 2026-05-07 17:43 | 40.68165 | -74.17971 | 24 ft | 17 kts | 152° |
| 2026-05-07 17:44 | 40.68071 | -74.17869 | 22 ft | 13 kts | 116° |
| 2026-05-07 17:44 | 40.68025 | -74.17804 | 20 ft | 9 kts | 180° |
| 2026-05-07 17:44 | 40.67960 | -74.17839 | 23 ft | 10 kts | 205° |
| 2026-05-07 17:44 | 40.67893 | -74.17882 | 23 ft | 11 kts | 206° |
| 2026-05-07 17:45 | 40.67810 | -74.17935 | 22 ft | 16 kts | 202° |
| 2026-05-07 17:45 | 40.67731 | -74.17982 | 22 ft | 11 kts | 205° |
| 2026-05-07 17:45 | 40.67652 | -74.18032 | 22 ft | 14 kts | 206° |
| 2026-05-07 17:45 | 40.67611 | -74.18044 | 22 ft | 0 kts | 166° |
| 2026-05-07 17:46 | 40.67610 | -74.18044 | 22 ft | 1 kts | 166° |
| 2026-05-07 17:46 | 40.67579 | -74.18013 | 22 ft | 11 kts | 132° |
| 2026-05-07 17:46 | 40.67559 | -74.17938 | 25 ft | 7 kts | 69° |
| 2026-05-07 17:47 | 40.67583 | -74.17913 | 25 ft | 0 kts | 26° |
| 2026-05-07 17:47 | 40.67593 | -74.17906 | 24 ft | 8 kts | 26° |
| 2026-05-07 17:48 | 40.67859 | -74.17739 | 19 ft | 76 kts | 26° |
| 2026-05-07 17:48 | 40.68510 | -74.17329 | 25 ft | 129 kts | 24° |
| 2026-05-07 17:48 | 40.69457 | -74.16727 | 37 ft | 169 kts | 28° |
| 2026-05-07 17:48 | 40.70478 | -74.16029 | 670 ft | 162 kts | 24° |
| 2026-05-07 17:49 | 40.71559 | -74.15311 | 1055 ft | 188 kts | 26° |
| 2026-05-07 17:49 | 40.72768 | -74.14340 | 1464 ft | 218 kts | 28° |
| 2026-05-07 17:49 | 40.74093 | -74.13365 | 2358 ft | 217 kts | 26° |
| 2026-05-07 17:49 | 40.75428 | -74.12405 | 3277 ft | 222 kts | 27° |
| 2026-05-07 17:50 | 40.76838 | -74.11393 | 3900 ft | 240 kts | 26° |
| 2026-05-07 17:50 | 40.78355 | -74.10266 | 4467 ft | 260 kts | 33° |
| 2026-05-07 17:50 | 40.79683 | -74.08532 | 5075 ft | 276 kts | 52° |
| 2026-05-07 17:50 | 40.80861 | -74.06531 | 6066 ft | 279 kts | 48° |
| 2026-05-07 17:51 | 40.82107 | -74.04508 | 6833 ft | 288 kts | 47° |
| 2026-05-07 17:51 | 40.83399 | -74.02428 | 7516 ft | 298 kts | 47° |
| 2026-05-07 17:51 | 40.84740 | -74.00280 | 8229 ft | 308 kts | 46° |
| 2026-05-07 17:51 | 40.86105 | -73.98098 | 8931 ft | 318 kts | 46° |
| 2026-05-07 17:52 | 40.87534 | -73.95813 | 9656 ft | 327 kts | 46° |
| 2026-05-07 17:52 | 40.89005 | -73.93458 | 10274 ft | 339 kts | 46° |
| 2026-05-07 17:52 | 40.90544 | -73.90998 | 10676 ft | 357 kts | 46° |
| 2026-05-07 17:52 | 40.92140 | -73.88445 | 11175 ft | 371 kts | 47° |
| 2026-05-07 17:53 | 40.93829 | -73.85741 | 11757 ft | 383 kts | 47° |
| 2026-05-07 17:53 | 40.95546 | -73.82986 | 12397 ft | 392 kts | 47° |
| 2026-05-07 17:53 | 40.97290 | -73.80184 | 13146 ft | 399 kts | 47° |
| 2026-05-07 17:53 | 40.99075 | -73.77315 | 13862 ft | 406 kts | 47° |
| 2026-05-07 17:54 | 41.00875 | -73.74421 | 14588 ft | 410 kts | 47° |
| 2026-05-07 17:54 | 41.02701 | -73.71480 | 15371 ft | 414 kts | 47° |
| 2026-05-07 17:54 | 41.04514 | -73.68558 | 16145 ft | 418 kts | 47° |
| 2026-05-07 17:54 | 41.06364 | -73.65573 | 16941 ft | 421 kts | 47° |
| 2026-05-07 17:55 | 41.08233 | -73.62555 | 17685 ft | 426 kts | 47° |
| 2026-05-07 17:55 | 41.10118 | -73.59506 | 18368 ft | 430 kts | 47° |
| 2026-05-07 17:55 | 41.12025 | -73.56420 | 18920 ft | 436 kts | 47° |
| 2026-05-07 17:55 | 41.13967 | -73.53275 | 19425 ft | 444 kts | 47° |
| 2026-05-07 17:56 | 41.15931 | -73.50089 | 19909 ft | 452 kts | 47° |
| 2026-05-07 17:56 | 41.17939 | -73.46829 | 20445 ft | 458 kts | 47° |
| 2026-05-07 17:56 | 41.19971 | -73.43526 | 20792 ft | 466 kts | 47° |
| 2026-05-07 17:56 | 41.22044 | -73.40154 | 20870 ft | 478 kts | 47° |
| 2026-05-07 17:57 | 41.24166 | -73.36699 | 20879 ft | 487 kts | 47° |
| 2026-05-07 17:57 | 41.25619 | -73.34329 | 20885 ft | 490 kts | 47° |
| 2026-05-07 17:57 | 41.28476 | -73.29663 | 20902 ft | 492 kts | 47° |
| 2026-05-07 17:57 | 41.30632 | -73.26139 | 20899 ft | 492 kts | 47° |
| 2026-05-07 17:58 | 41.32791 | -73.22607 | 20909 ft | 492 kts | 47° |
| 2026-05-07 17:58 | 41.34945 | -73.19076 | 20901 ft | 492 kts | 47° |
| 2026-05-07 17:58 | 41.36942 | -73.15370 | 20884 ft | 495 kts | 59° |
| 2026-05-07 17:58 | 41.38235 | -73.11161 | 20906 ft | 495 kts | 77° |
| 2026-05-07 17:59 | 41.38874 | -73.06661 | 20905 ft | 495 kts | 83° |
| 2026-05-07 17:59 | 41.39417 | -73.02134 | 20900 ft | 495 kts | 84° |
| 2026-05-07 17:59 | 41.39932 | -72.97607 | 20886 ft | 495 kts | 84° |
| 2026-05-07 17:59 | 41.40430 | -72.93067 | 20885 ft | 495 kts | 84° |
| 2026-05-07 18:00 | 41.40918 | -72.88522 | 20893 ft | 496 kts | 85° |
| 2026-05-07 18:00 | 41.41403 | -72.83979 | 20890 ft | 496 kts | 85° |
| 2026-05-07 18:00 | 41.41887 | -72.79424 | 20867 ft | 496 kts | 85° |
| 2026-05-07 18:00 | 41.42368 | -72.74874 | 20871 ft | 497 kts | 85° |
| 2026-05-07 18:01 | 41.42849 | -72.70322 | 20856 ft | 497 kts | 85° |
| 2026-05-07 18:01 | 41.43328 | -72.65752 | 20856 ft | 497 kts | 85° |
| 2026-05-07 18:01 | 41.43806 | -72.61192 | 20867 ft | 498 kts | 85° |
| 2026-05-07 18:01 | 41.44281 | -72.56621 | 20863 ft | 498 kts | 85° |
| 2026-05-07 18:02 | 41.45228 | -72.47479 | 20851 ft | 498 kts | 85° |
| 2026-05-07 18:02 | 41.45699 | -72.42909 | 20860 ft | 498 kts | 85° |
| 2026-05-07 18:02 | 41.46168 | -72.38338 | 20857 ft | 498 kts | 85° |
| 2026-05-07 18:03 | 41.46635 | -72.33763 | 20846 ft | 498 kts | 85° |
| 2026-05-07 18:03 | 41.47094 | -72.29254 | 20851 ft | 498 kts | 85° |
| 2026-05-07 18:03 | 41.47568 | -72.24612 | 20859 ft | 499 kts | 84° |
| 2026-05-07 18:03 | 41.48424 | -72.20195 | 20824 ft | 501 kts | 68° |
| 2026-05-07 18:04 | 41.49870 | -72.15903 | 20856 ft | 501 kts | 64° |
| 2026-05-07 18:04 | 41.51315 | -72.11815 | 20809 ft | 486 kts | 64° |
| 2026-05-07 18:04 | 41.52761 | -72.07793 | 20547 ft | 478 kts | 63° |
| 2026-05-07 18:04 | 41.54200 | -72.03829 | 20248 ft | 471 kts | 63° |
| 2026-05-07 18:05 | 41.55581 | -71.99897 | 19954 ft | 465 kts | 68° |
| 2026-05-07 18:05 | 41.56780 | -71.95921 | 19673 ft | 460 kts | 68° |
| 2026-05-07 18:05 | 41.57983 | -71.91982 | 19371 ft | 456 kts | 68° |
| 2026-05-07 18:05 | 41.59181 | -71.88084 | 19085 ft | 452 kts | 68° |
| 2026-05-07 18:06 | 41.60332 | -71.84189 | 18805 ft | 448 kts | 69° |
| 2026-05-07 18:06 | 41.61465 | -71.80343 | 18524 ft | 444 kts | 69° |
| 2026-05-07 18:06 | 41.62595 | -71.76515 | 18243 ft | 440 kts | 69° |
| 2026-05-07 18:06 | 41.63711 | -71.72730 | 17942 ft | 436 kts | 69° |
| 2026-05-07 18:07 | 41.64820 | -71.68969 | 17631 ft | 433 kts | 69° |
| 2026-05-07 18:07 | 41.65920 | -71.65231 | 17318 ft | 432 kts | 69° |
| 2026-05-07 18:07 | 41.67014 | -71.61508 | 17006 ft | 430 kts | 69° |
| 2026-05-07 18:07 | 41.68103 | -71.57792 | 16765 ft | 428 kts | 69° |
| 2026-05-07 18:08 | 41.69189 | -71.54084 | 16557 ft | 428 kts | 69° |
| 2026-05-07 18:08 | 41.70264 | -71.50405 | 16338 ft | 421 kts | 69° |
| 2026-05-07 18:08 | 41.71320 | -71.46789 | 16132 ft | 413 kts | 69° |
| 2026-05-07 18:08 | 41.72379 | -71.43256 | 15921 ft | 406 kts | 64° |
| 2026-05-07 18:09 | 41.73731 | -71.39981 | 15716 ft | 400 kts | 58° |
| 2026-05-07 18:09 | 41.75113 | -71.36768 | 15520 ft | 398 kts | 59° |
| 2026-05-07 18:09 | 41.76488 | -71.33557 | 15265 ft | 397 kts | 59° |
| 2026-05-07 18:09 | 41.77864 | -71.30336 | 14786 ft | 400 kts | 59° |
| 2026-05-07 18:10 | 41.79244 | -71.27102 | 14246 ft | 404 kts | 58° |
| 2026-05-07 18:10 | 41.80635 | -71.23838 | 13705 ft | 404 kts | 58° |
| 2026-05-07 18:10 | 41.82011 | -71.20605 | 13194 ft | 395 kts | 58° |
| 2026-05-07 18:10 | 41.83355 | -71.17445 | 12702 ft | 386 kts | 58° |
| 2026-05-07 18:11 | 41.84669 | -71.14348 | 12239 ft | 377 kts | 58° |
| 2026-05-07 18:11 | 41.85523 | -71.12348 | 11968 ft | 370 kts | 57° |
| 2026-05-07 18:11 | 41.87194 | -71.08492 | 11669 ft | 357 kts | 57° |
| 2026-05-07 18:11 | 41.88435 | -71.05622 | 11457 ft | 355 kts | 57° |
| 2026-05-07 18:12 | 41.89672 | -71.02757 | 11245 ft | 353 kts | 57° |
| 2026-05-07 18:12 | 41.90896 | -70.99918 | 11015 ft | 351 kts | 57° |
| 2026-05-07 18:12 | 41.92113 | -70.97093 | 10793 ft | 348 kts | 57° |
| 2026-05-07 18:12 | 41.93320 | -70.94287 | 10580 ft | 346 kts | 57° |
| 2026-05-07 18:13 | 41.94520 | -70.91494 | 10369 ft | 344 kts | 57° |
| 2026-05-07 18:13 | 41.95712 | -70.88720 | 10153 ft | 342 kts | 57° |
| 2026-05-07 18:13 | 41.96900 | -70.85953 | 9934 ft | 340 kts | 57° |
| 2026-05-07 18:13 | 41.98077 | -70.83206 | 9719 ft | 338 kts | 57° |
| 2026-05-07 18:14 | 41.99248 | -70.80474 | 9483 ft | 337 kts | 56° |
| 2026-05-07 18:14 | 42.00411 | -70.77756 | 9266 ft | 333 kts | 56° |
| 2026-05-07 18:14 | 42.01697 | -70.75222 | 9039 ft | 325 kts | 44° |
| 2026-05-07 18:14 | 42.03214 | -70.72991 | 8842 ft | 321 kts | 42° |
| 2026-05-07 18:15 | 42.04707 | -70.70786 | 8653 ft | 318 kts | 43° |
| 2026-05-07 18:15 | 42.06185 | -70.68587 | 8463 ft | 315 kts | 43° |
| 2026-05-07 18:15 | 42.07647 | -70.66403 | 8273 ft | 313 kts | 43° |
| 2026-05-07 18:15 | 42.09094 | -70.64234 | 8094 ft | 310 kts | 43° |
| 2026-05-07 18:16 | 42.10652 | -70.62300 | 7855 ft | 300 kts | 24° |
| 2026-05-07 18:16 | 42.12550 | -70.61392 | 7597 ft | 283 kts | 3° |
| 2026-05-07 18:16 | 42.14467 | -70.60929 | 7396 ft | 280 kts | 3° |
| 2026-05-07 18:16 | 42.16384 | -70.60483 | 7183 ft | 278 kts | 3° |
| 2026-05-07 18:17 | 42.17648 | -70.60182 | 7067 ft | 277 kts | 4° |
| 2026-05-07 18:17 | 42.19532 | -70.59750 | 6861 ft | 273 kts | 3° |
| 2026-05-07 18:17 | 42.21399 | -70.59361 | 6417 ft | 268 kts | 3° |
| 2026-05-07 18:17 | 42.23212 | -70.58977 | 6092 ft | 259 kts | 4° |
| 2026-05-07 18:18 | 42.24956 | -70.58606 | 5793 ft | 249 kts | 4° |
| 2026-05-07 18:18 | 42.26622 | -70.58249 | 5646 ft | 236 kts | 4° |
| 2026-05-07 18:18 | 42.28215 | -70.57909 | 5526 ft | 228 kts | 4° |
| 2026-05-07 18:18 | 42.29765 | -70.57577 | 5404 ft | 224 kts | 4° |
| 2026-05-07 18:19 | 42.31302 | -70.57247 | 5283 ft | 223 kts | 4° |
| 2026-05-07 18:19 | 42.32828 | -70.56920 | 5162 ft | 222 kts | 4° |
| 2026-05-07 18:19 | 42.34356 | -70.56591 | 5052 ft | 222 kts | 4° |
| 2026-05-07 18:19 | 42.35896 | -70.56237 | 5410 ft | 224 kts | 5° |
| 2026-05-07 18:20 | 42.37410 | -70.55883 | 5414 ft | 223 kts | 4° |
| 2026-05-07 18:20 | 42.38943 | -70.55750 | 5153 ft | 217 kts | 350° |
| 2026-05-07 18:20 | 42.40427 | -70.56035 | 4846 ft | 216 kts | 346° |
| 2026-05-07 18:20 | 42.41901 | -70.56392 | 4562 ft | 215 kts | 346° |
| 2026-05-07 18:21 | 42.43349 | -70.56755 | 4280 ft | 213 kts | 343° |
| 2026-05-07 18:21 | 42.44585 | -70.57695 | 4001 ft | 202 kts | 304° |
| 2026-05-07 18:21 | 42.44933 | -70.59454 | 3925 ft | 199 kts | 261° |
| 2026-05-07 18:21 | 42.44245 | -70.61087 | 3972 ft | 208 kts | 229° |
| 2026-05-07 18:22 | 42.43161 | -70.62472 | 4012 ft | 213 kts | 231° |
| 2026-05-07 18:22 | 42.42639 | -70.63532 | 3974 ft | 209 kts | 248° |
| 2026-05-07 18:22 | 42.41969 | -70.66012 | 4044 ft | 210 kts | 255° |
| 2026-05-07 18:22 | 42.41559 | -70.67873 | 4009 ft | 201 kts | 256° |
| 2026-05-07 18:23 | 42.41205 | -70.69640 | 3962 ft | 188 kts | 257° |
| 2026-05-07 18:23 | 42.40890 | -70.71303 | 3805 ft | 178 kts | 258° |
| 2026-05-07 18:23 | 42.40599 | -70.72891 | 3627 ft | 170 kts | 258° |
| 2026-05-07 18:23 | 42.40323 | -70.74429 | 3481 ft | 167 kts | 258° |
| 2026-05-07 18:24 | 42.40051 | -70.75951 | 3350 ft | 166 kts | 258° |
| 2026-05-07 18:24 | 42.39780 | -70.77476 | 3169 ft | 167 kts | 259° |
| 2026-05-07 18:24 | 42.39510 | -70.79001 | 2964 ft | 167 kts | 259° |
| 2026-05-07 18:24 | 42.39239 | -70.80527 | 2747 ft | 166 kts | 259° |
| 2026-05-07 18:25 | 42.38972 | -70.82042 | 2542 ft | 166 kts | 259° |
| 2026-05-07 18:25 | 42.38704 | -70.83564 | 2324 ft | 166 kts | 259° |
| 2026-05-07 18:25 | 42.38439 | -70.85071 | 2104 ft | 165 kts | 259° |
| 2026-05-07 18:25 | 42.38174 | -70.86577 | 1896 ft | 162 kts | 258° |
| 2026-05-07 18:26 | 42.37916 | -70.88037 | 1683 ft | 155 kts | 259° |
| 2026-05-07 18:26 | 42.37672 | -70.89420 | 1498 ft | 149 kts | 259° |
| 2026-05-07 18:26 | 42.37434 | -70.90770 | 1277 ft | 146 kts | 259° |
| 2026-05-07 18:26 | 42.37198 | -70.92109 | 1075 ft | 147 kts | 258° |
| 2026-05-07 18:27 | 42.36963 | -70.93435 | 860 ft | 144 kts | 259° |
| 2026-05-07 18:27 | 42.36730 | -70.94749 | 686 ft | 144 kts | 260° |
| 2026-05-07 18:27 | 42.36497 | -70.96056 | 485 ft | 142 kts | 259° |
| 2026-05-07 18:27 | 42.36273 | -70.97354 | 242 ft | 143 kts | 257° |
| 2026-05-07 18:28 | 42.36042 | -70.98658 | 70 ft | 140 kts | 258° |
| 2026-05-07 18:28 | 42.35838 | -70.99827 | 32 ft | 99 kts | 256° |
| 2026-05-07 18:28 | 42.35729 | -71.00442 | 28 ft | 50 kts | 256° |
| 2026-05-07 18:28 | 42.35650 | -71.00863 | 26 ft | 35 kts | 256° |
| 2026-05-07 18:29 | 42.35642 | -71.01102 | 27 ft | 24 kts | 288° |
| 2026-05-07 18:29 | 42.35732 | -71.01281 | 26 ft | 22 kts | 301° |
| 2026-05-07 18:29 | 42.35781 | -71.01459 | 30 ft | 19 kts | 289° |
| 2026-05-07 18:29 | 42.35812 | -71.01581 | 30 ft | 13 kts | 288° |
| 2026-05-07 18:30 | 42.35856 | -71.01661 | 30 ft | 9 kts | 8° |
| 2026-05-07 18:30 | 42.35915 | -71.01635 | 31 ft | 10 kts | 18° |
| 2026-05-07 18:30 | 42.35995 | -71.01600 | 29 ft | 14 kts | 18° |
| 2026-05-07 18:30 | 42.36086 | -71.01564 | 28 ft | 10 kts | 354° |
| 2026-05-07 18:31 | 42.36122 | -71.01639 | 27 ft | 7 kts | 290° |
| 2026-05-07 18:31 | 42.36128 | -71.01663 | 26 ft | 0 kts | 290° |